sensor_id;sensor_type;location;lat;lon;timestamp;pressure;altitude;pressure_sealevel;temperature;humidity
35121;BME280;21297;52.008;4.576;2024-01-30T00:00:30;45211.44;;;-143.47;86.90
35121;BME280;21297;52.008;4.576;2024-01-30T00:03:15;45130.91;;;-143.47;85.11
35121;BME280;21297;52.008;4.576;2024-01-30T00:06:03;45058.22;;;-143.47;83.15
35121;BME280;21297;52.008;4.576;2024-01-30T00:08:48;45016.97;;;-143.47;81.21
35121;BME280;21297;52.008;4.576;2024-01-30T00:11:34;45003.22;;;-143.47;80.37
35121;BME280;21297;52.008;4.576;2024-01-30T00:14:20;44975.72;;;-143.47;79.97
35121;BME280;21297;52.008;4.576;2024-01-30T00:17:05;44960.00;;;-143.47;79.53
35121;BME280;21297;52.008;4.576;2024-01-30T00:19:51;44971.78;;;-143.47;79.26
35121;BME280;21297;52.008;4.576;2024-01-30T00:22:37;44960.00;;;-143.47;80.21
35121;BME280;21297;52.008;4.576;2024-01-30T00:25:23;44975.72;;;-143.47;79.77
35121;BME280;21297;52.008;4.576;2024-01-30T00:28:08;44999.28;;;-143.47;80.18
35121;BME280;21297;52.008;4.576;2024-01-30T00:30:54;45003.22;;;-143.47;81.72
35121;BME280;21297;52.008;4.576;2024-01-30T00:33:40;45113.22;;;-143.47;84.03
35121;BME280;21297;52.008;4.576;2024-01-30T00:36:26;45081.78;;;-143.47;83.81
35121;BME280;21297;52.008;4.576;2024-01-30T00:39:15;45103.41;;;-143.47;83.87
35121;BME280;21297;52.008;4.576;2024-01-30T00:42:01;44975.72;;;-143.47;79.89
35121;BME280;21297;52.008;4.576;2024-01-30T00:44:47;44987.50;;;-143.47;79.14
35121;BME280;21297;52.008;4.576;2024-01-30T00:47:32;44942.31;;;-143.47;78.83
35121;BME280;21297;52.008;4.576;2024-01-30T00:50:18;44928.56;;;-143.47;78.22
35121;BME280;21297;52.008;4.576;2024-01-30T00:53:04;44924.63;;;-143.47;76.82
35121;BME280;21297;52.008;4.576;2024-01-30T00:55:49;44885.34;;;-143.47;76.38
35121;BME280;21297;52.008;4.576;2024-01-30T00:58:35;44958.03;;;-143.47;76.67
35121;BME280;21297;52.008;4.576;2024-01-30T01:01:21;44914.81;;;-143.47;76.69
35121;BME280;21297;52.008;4.576;2024-01-30T01:04:06;44879.47;;;-143.47;75.99
35121;BME280;21297;52.008;4.576;2024-01-30T01:06:52;44950.16;;;-143.47;78.45
35121;BME280;21297;52.008;4.576;2024-01-30T01:09:38;44989.47;;;-143.47;78.97
35121;BME280;21297;52.008;4.576;2024-01-30T01:12:24;45022.84;;;-143.47;80.88
35121;BME280;21297;52.008;4.576;2024-01-30T01:15:10;45040.53;;;-143.47;82.68
35121;BME280;21297;52.008;4.576;2024-01-30T01:17:55;45062.16;;;-143.47;83.60
35121;BME280;21297;52.008;4.576;2024-01-30T01:20:41;45077.88;;;-143.47;83.92
35121;BME280;21297;52.008;4.576;2024-01-30T01:23:27;45154.47;;;-143.47;85.79
35121;BME280;21297;52.008;4.576;2024-01-30T01:26:13;45093.59;;;-143.47;83.75
35121;BME280;21297;52.008;4.576;2024-01-30T01:28:58;45030.72;;;-143.47;81.74
35121;BME280;21297;52.008;4.576;2024-01-30T01:31:44;45022.84;;;-143.47;82.15
35121;BME280;21297;52.008;4.576;2024-01-30T01:34:30;45138.75;;;-143.47;85.73
35121;BME280;21297;52.008;4.576;2024-01-30T01:37:15;45201.63;;;-143.47;86.54
35121;BME280;21297;52.008;4.576;2024-01-30T01:40:01;45142.69;;;-143.47;85.88
35121;BME280;21297;52.008;4.576;2024-01-30T01:42:47;45123.03;;;-143.47;85.20
35121;BME280;21297;52.008;4.576;2024-01-30T01:45:32;45103.41;;;-143.47;85.11
35121;BME280;21297;52.008;4.576;2024-01-30T01:48:18;45158.41;;;-143.47;85.39
35121;BME280;21297;52.008;4.576;2024-01-30T01:51:04;45097.50;;;-143.47;84.11
35121;BME280;21297;52.008;4.576;2024-01-30T01:53:50;45060.19;;;-143.47;83.52
35121;BME280;21297;52.008;4.576;2024-01-30T01:56:36;45105.38;;;-143.47;84.03
35121;BME280;21297;52.008;4.576;2024-01-30T01:59:24;45077.88;;;-143.47;84.02
35121;BME280;21297;52.008;4.576;2024-01-30T02:02:11;45164.31;;;-143.47;85.46
35121;BME280;21297;52.008;4.576;2024-01-30T02:04:58;45207.53;;;-143.47;86.62
35121;BME280;21297;52.008;4.576;2024-01-30T02:07:44;45235.03;;;-143.47;87.51
35121;BME280;21297;52.008;4.576;2024-01-30T02:10:30;45292.00;;;-143.47;88.44
35121;BME280;21297;52.008;4.576;2024-01-30T02:13:15;45189.84;;;-143.47;86.65
35121;BME280;21297;52.008;4.576;2024-01-30T02:16:01;45160.38;;;-143.47;86.21
35121;BME280;21297;52.008;4.576;2024-01-30T02:18:47;45203.59;;;-143.47;86.13
35121;BME280;21297;52.008;4.576;2024-01-30T02:21:33;45178.06;;;-143.47;85.96
35121;BME280;21297;52.008;4.576;2024-01-30T02:24:19;45162.34;;;-143.47;85.50
35121;BME280;21297;52.008;4.576;2024-01-30T02:27:04;45191.81;;;-143.47;86.17
35121;BME280;21297;52.008;4.576;2024-01-30T02:29:50;45168.22;;;-143.47;85.73
35121;BME280;21297;52.008;4.576;2024-01-30T02:32:36;45054.28;;;-143.47;83.66
35121;BME280;21297;52.008;4.576;2024-01-30T02:35:22;45083.75;;;-143.47;84.10
35121;BME280;21297;52.008;4.576;2024-01-30T02:38:07;45148.59;;;-143.47;85.40
35121;BME280;21297;52.008;4.576;2024-01-30T02:40:53;45199.66;;;-143.47;86.05
35121;BME280;21297;52.008;4.576;2024-01-30T02:43:39;45327.38;;;-143.47;88.97
35121;BME280;21297;52.008;4.576;2024-01-30T02:46:24;45254.66;;;-143.47;88.07
35121;BME280;21297;52.008;4.576;2024-01-30T02:49:10;45168.22;;;-143.47;86.53
35121;BME280;21297;52.008;4.576;2024-01-30T02:51:56;45148.59;;;-143.47;85.43
35121;BME280;21297;52.008;4.576;2024-01-30T02:54:42;45235.03;;;-143.47;86.66
35121;BME280;21297;52.008;4.576;2024-01-30T02:57:28;45246.81;;;-143.47;87.23
35121;BME280;21297;52.008;4.576;2024-01-30T03:00:14;45213.41;;;-143.47;86.95
35121;BME280;21297;52.008;4.576;2024-01-30T03:03:00;45225.19;;;-143.47;86.70
35121;BME280;21297;52.008;4.576;2024-01-30T03:05:46;45079.81;;;-143.47;83.80
35121;BME280;21297;52.008;4.576;2024-01-30T03:08:32;45054.28;;;-143.47;81.92
35121;BME280;21297;52.008;4.576;2024-01-30T03:11:17;45020.91;;;-143.47;81.64
35121;BME280;21297;52.008;4.576;2024-01-30T03:14:03;44963.94;;;-143.47;79.30
35121;BME280;21297;52.008;4.576;2024-01-30T03:16:49;44936.41;;;-143.47;78.86
35121;BME280;21297;52.008;4.576;2024-01-30T03:19:35;44946.25;;;-143.47;79.49
35121;BME280;21297;52.008;4.576;2024-01-30T03:22:21;44950.16;;;-143.47;79.17
35121;BME280;21297;52.008;4.576;2024-01-30T03:25:07;44936.41;;;-143.47;77.95
35121;BME280;21297;52.008;4.576;2024-01-30T03:27:52;44928.56;;;-143.47;77.75
35121;BME280;21297;52.008;4.576;2024-01-30T03:30:38;44950.16;;;-143.47;79.06
35121;BME280;21297;52.008;4.576;2024-01-30T03:33:24;44932.50;;;-143.47;78.91
35121;BME280;21297;52.008;4.576;2024-01-30T03:36:10;44979.63;;;-143.47;78.86
35121;BME280;21297;52.008;4.576;2024-01-30T03:38:56;44961.97;;;-143.47;78.77
35121;BME280;21297;52.008;4.576;2024-01-30T03:41:42;44932.50;;;-143.47;78.27
35121;BME280;21297;52.008;4.576;2024-01-30T03:44:29;44948.22;;;-143.47;78.82
35121;BME280;21297;52.008;4.576;2024-01-30T03:47:15;44960.00;;;-143.47;79.36
35121;BME280;21297;52.008;4.576;2024-01-30T03:50:01;44963.94;;;-143.47;77.82
35121;BME280;21297;52.008;4.576;2024-01-30T03:52:46;44938.38;;;-143.47;77.16
35121;BME280;21297;52.008;4.576;2024-01-30T03:55:32;44920.72;;;-143.47;77.58
35121;BME280;21297;52.008;4.576;2024-01-30T03:58:17;44958.03;;;-143.47;77.15
35121;BME280;21297;52.008;4.576;2024-01-30T04:01:03;44936.41;;;-143.47;78.23
35121;BME280;21297;52.008;4.576;2024-01-30T04:03:49;44920.72;;;-143.47;77.83
35121;BME280;21297;52.008;4.576;2024-01-30T04:06:34;44944.28;;;-143.47;77.53
35121;BME280;21297;52.008;4.576;2024-01-30T04:09:20;44934.47;;;-143.47;76.74
35121;BME280;21297;52.008;4.576;2024-01-30T04:12:06;44961.97;;;-143.47;77.36
35121;BME280;21297;52.008;4.576;2024-01-30T04:14:52;44944.28;;;-143.47;77.16
35121;BME280;21297;52.008;4.576;2024-01-30T04:17:37;44961.97;;;-143.47;77.04
35121;BME280;21297;52.008;4.576;2024-01-30T04:20:23;44916.78;;;-143.47;77.40
35121;BME280;21297;52.008;4.576;2024-01-30T04:23:09;44914.81;;;-143.47;77.46
35121;BME280;21297;52.008;4.576;2024-01-30T04:25:55;44944.28;;;-143.47;79.48
35121;BME280;21297;52.008;4.576;2024-01-30T04:28:46;45009.09;;;-143.47;79.60
35121;BME280;21297;52.008;4.576;2024-01-30T04:31:32;44981.59;;;-143.47;79.45
35121;BME280;21297;52.008;4.576;2024-01-30T04:34:18;44987.50;;;-143.47;80.01
35121;BME280;21297;52.008;4.576;2024-01-30T04:37:03;44975.72;;;-143.47;79.92
35121;BME280;21297;52.008;4.576;2024-01-30T04:39:49;44983.56;;;-143.47;79.98
35121;BME280;21297;52.008;4.576;2024-01-30T04:42:35;44975.72;;;-143.47;79.80
35121;BME280;21297;52.008;4.576;2024-01-30T04:45:20;45016.97;;;-143.47;80.73
35121;BME280;21297;52.008;4.576;2024-01-30T04:48:06;44975.72;;;-143.47;80.24
35121;BME280;21297;52.008;4.576;2024-01-30T04:50:52;44971.78;;;-143.47;80.29
35121;BME280;21297;52.008;4.576;2024-01-30T04:53:37;45011.06;;;-143.47;79.92
35121;BME280;21297;52.008;4.576;2024-01-30T04:56:25;45013.03;;;-143.47;80.63
35121;BME280;21297;52.008;4.576;2024-01-30T04:59:11;45071.97;;;-143.47;82.63
35121;BME280;21297;52.008;4.576;2024-01-30T05:01:57;45075.91;;;-143.47;83.13
35121;BME280;21297;52.008;4.576;2024-01-30T05:04:42;45123.03;;;-143.47;84.38
35121;BME280;21297;52.008;4.576;2024-01-30T05:07:28;45138.75;;;-143.47;84.90
35121;BME280;21297;52.008;4.576;2024-01-30T05:10:14;45144.66;;;-143.47;84.55
35121;BME280;21297;52.008;4.576;2024-01-30T05:12:59;45109.28;;;-143.47;84.42
35121;BME280;21297;52.008;4.576;2024-01-30T05:15:45;45152.50;;;-143.47;85.16
35121;BME280;21297;52.008;4.576;2024-01-30T05:18:31;45162.34;;;-143.47;85.28
35121;BME280;21297;52.008;4.576;2024-01-30T05:21:16;45187.88;;;-143.47;85.68
35121;BME280;21297;52.008;4.576;2024-01-30T05:24:02;45138.75;;;-143.47;84.96
35121;BME280;21297;52.008;4.576;2024-01-30T05:26:48;45144.66;;;-143.47;85.23
35121;BME280;21297;52.008;4.576;2024-01-30T05:29:33;45123.03;;;-143.47;84.14
35121;BME280;21297;52.008;4.576;2024-01-30T05:32:19;45091.63;;;-143.47;83.71
35121;BME280;21297;52.008;4.576;2024-01-30T05:35:05;45128.94;;;-143.47;84.47
35121;BME280;21297;52.008;4.576;2024-01-30T05:37:51;45117.16;;;-143.47;84.33
35121;BME280;21297;52.008;4.576;2024-01-30T05:40:36;45105.38;;;-143.47;84.05
35121;BME280;21297;52.008;4.576;2024-01-30T05:43:22;45111.25;;;-143.47;84.22
35121;BME280;21297;52.008;4.576;2024-01-30T05:46:07;45119.13;;;-143.47;84.11
35121;BME280;21297;52.008;4.576;2024-01-30T05:48:54;45113.22;;;-143.47;84.04
35121;BME280;21297;52.008;4.576;2024-01-30T05:51:39;45130.91;;;-143.47;84.74
35121;BME280;21297;52.008;4.576;2024-01-30T05:54:25;45215.38;;;-143.47;85.96
35121;BME280;21297;52.008;4.576;2024-01-30T05:57:11;45148.59;;;-143.47;85.09
35121;BME280;21297;52.008;4.576;2024-01-30T05:59:56;45109.28;;;-143.47;83.81
35121;BME280;21297;52.008;4.576;2024-01-30T06:02:42;45113.22;;;-143.47;84.12
35121;BME280;21297;52.008;4.576;2024-01-30T06:05:28;45125.00;;;-143.47;84.78
35121;BME280;21297;52.008;4.576;2024-01-30T06:08:13;45148.59;;;-143.47;85.21
35121;BME280;21297;52.008;4.576;2024-01-30T06:10:59;45146.63;;;-143.47;84.92
35121;BME280;21297;52.008;4.576;2024-01-30T06:13:45;45144.66;;;-143.47;84.72
35121;BME280;21297;52.008;4.576;2024-01-30T06:16:31;45156.44;;;-143.47;84.91
35121;BME280;21297;52.008;4.576;2024-01-30T06:19:16;45130.91;;;-143.47;84.70
35121;BME280;21297;52.008;4.576;2024-01-30T06:22:05;45085.72;;;-143.47;83.97
35121;BME280;21297;52.008;4.576;2024-01-30T06:24:50;45140.72;;;-143.47;84.33
35121;BME280;21297;52.008;4.576;2024-01-30T06:27:36;45125.00;;;-143.47;84.29
35121;BME280;21297;52.008;4.576;2024-01-30T06:30:22;45123.03;;;-143.47;84.28
35121;BME280;21297;52.008;4.576;2024-01-30T06:33:07;45138.75;;;-143.47;84.72
35121;BME280;21297;52.008;4.576;2024-01-30T06:35:53;45128.94;;;-143.47;84.56
35121;BME280;21297;52.008;4.576;2024-01-30T06:38:39;45113.22;;;-143.47;83.96
35121;BME280;21297;52.008;4.576;2024-01-30T06:41:25;45126.97;;;-143.47;83.98
35121;BME280;21297;52.008;4.576;2024-01-30T06:44:10;45085.72;;;-143.47;83.89
35121;BME280;21297;52.008;4.576;2024-01-30T06:46:56;45113.22;;;-143.47;84.09
35121;BME280;21297;52.008;4.576;2024-01-30T06:49:41;45134.84;;;-143.47;84.26
35121;BME280;21297;52.008;4.576;2024-01-30T06:52:29;45136.81;;;-143.47;84.50
35121;BME280;21297;52.008;4.576;2024-01-30T06:55:14;45085.72;;;-143.47;84.02
35121;BME280;21297;52.008;4.576;2024-01-30T06:58:00;45105.38;;;-143.47;83.46
35121;BME280;21297;52.008;4.576;2024-01-30T07:00:46;45060.19;;;-143.47;83.40
35121;BME280;21297;52.008;4.576;2024-01-30T07:03:31;45103.41;;;-143.47;83.43
35121;BME280;21297;52.008;4.576;2024-01-30T07:06:17;45066.06;;;-143.47;82.69
35121;BME280;21297;52.008;4.576;2024-01-30T07:09:03;45050.34;;;-143.47;82.87
35121;BME280;21297;52.008;4.576;2024-01-30T07:11:48;45126.97;;;-143.47;83.64
35121;BME280;21297;52.008;4.576;2024-01-30T07:14:34;45028.75;;;-143.47;82.53
35121;BME280;21297;52.008;4.576;2024-01-30T07:17:20;45068.03;;;-143.47;82.85
35121;BME280;21297;52.008;4.576;2024-01-30T07:20:06;45075.91;;;-143.47;83.01
35121;BME280;21297;52.008;4.576;2024-01-30T07:22:52;45079.81;;;-143.47;83.39
35121;BME280;21297;52.008;4.576;2024-01-30T07:25:38;45068.03;;;-143.47;83.38
35121;BME280;21297;52.008;4.576;2024-01-30T07:28:24;45144.66;;;-143.47;84.39
35121;BME280;21297;52.008;4.576;2024-01-30T07:31:09;45085.72;;;-143.47;83.36
35121;BME280;21297;52.008;4.576;2024-01-30T07:33:55;45058.22;;;-143.47;82.08
35121;BME280;21297;52.008;4.576;2024-01-30T07:36:41;45099.47;;;-143.47;83.58
35121;BME280;21297;52.008;4.576;2024-01-30T07:39:27;45050.34;;;-143.47;83.20
35121;BME280;21297;52.008;4.576;2024-01-30T07:42:13;45093.59;;;-143.47;82.71
35121;BME280;21297;52.008;4.576;2024-01-30T07:45:00;45077.88;;;-143.47;82.96
35121;BME280;21297;52.008;4.576;2024-01-30T07:47:47;45070.00;;;-143.47;83.08
35121;BME280;21297;52.008;4.576;2024-01-30T07:50:32;45077.88;;;-143.47;83.33
35121;BME280;21297;52.008;4.576;2024-01-30T07:53:18;45117.16;;;-143.47;84.06
35121;BME280;21297;52.008;4.576;2024-01-30T07:56:05;45107.34;;;-143.47;83.94
35121;BME280;21297;52.008;4.576;2024-01-30T07:58:51;45132.88;;;-143.47;84.58
35121;BME280;21297;52.008;4.576;2024-01-30T08:01:37;45134.84;;;-143.47;84.17
35121;BME280;21297;52.008;4.576;2024-01-30T08:04:23;45140.72;;;-143.47;84.68
35121;BME280;21297;52.008;4.576;2024-01-30T08:07:09;45077.88;;;-143.47;83.22
35121;BME280;21297;52.008;4.576;2024-01-30T08:09:54;45111.25;;;-143.47;83.85
35121;BME280;21297;52.008;4.576;2024-01-30T08:12:40;45126.97;;;-143.47;83.91
35121;BME280;21297;52.008;4.576;2024-01-30T08:15:26;45105.38;;;-143.47;83.47
35121;BME280;21297;52.008;4.576;2024-01-30T08:18:11;45125.00;;;-143.47;83.71
35121;BME280;21297;52.008;4.576;2024-01-30T08:20:57;45083.75;;;-143.47;83.24
35121;BME280;21297;52.008;4.576;2024-01-30T08:23:43;45109.28;;;-143.47;83.50
35121;BME280;21297;52.008;4.576;2024-01-30T08:26:28;45046.44;;;-143.47;82.57
35121;BME280;21297;52.008;4.576;2024-01-30T08:29:14;45099.47;;;-143.47;83.55
35121;BME280;21297;52.008;4.576;2024-01-30T08:32:00;45099.47;;;-143.47;83.75
35121;BME280;21297;52.008;4.576;2024-01-30T08:34:45;45178.06;;;-143.47;85.46
35121;BME280;21297;52.008;4.576;2024-01-30T08:37:31;45117.16;;;-143.47;83.80
35121;BME280;21297;52.008;4.576;2024-01-30T08:40:17;45113.22;;;-143.47;83.65
35121;BME280;21297;52.008;4.576;2024-01-30T08:43:02;45109.28;;;-143.47;84.29
35121;BME280;21297;52.008;4.576;2024-01-30T08:45:49;45115.19;;;-143.47;84.24
35121;BME280;21297;52.008;4.576;2024-01-30T08:48:35;45211.44;;;-143.47;85.30
35121;BME280;21297;52.008;4.576;2024-01-30T08:51:21;45195.72;;;-143.47;85.15
35121;BME280;21297;52.008;4.576;2024-01-30T08:54:07;45168.22;;;-143.47;85.19
35121;BME280;21297;52.008;4.576;2024-01-30T08:56:53;45150.56;;;-143.47;85.17
35121;BME280;21297;52.008;4.576;2024-01-30T08:59:38;45187.88;;;-143.47;85.71
35121;BME280;21297;52.008;4.576;2024-01-30T09:02:25;45197.69;;;-143.47;86.28
35121;BME280;21297;52.008;4.576;2024-01-30T09:05:10;45229.13;;;-143.47;85.98
35121;BME280;21297;52.008;4.576;2024-01-30T09:07:56;45221.28;;;-143.47;85.68
35121;BME280;21297;52.008;4.576;2024-01-30T09:10:42;45176.09;;;-143.47;85.69
35121;BME280;21297;52.008;4.576;2024-01-30T09:13:28;45164.31;;;-143.47;85.23
35121;BME280;21297;52.008;4.576;2024-01-30T09:16:13;45181.97;;;-143.47;85.95
35121;BME280;21297;52.008;4.576;2024-01-30T09:19:01;45138.75;;;-143.47;84.71
35121;BME280;21297;52.008;4.576;2024-01-30T09:21:47;45229.13;;;-143.47;86.01
35121;BME280;21297;52.008;4.576;2024-01-30T09:24:32;45258.59;;;-143.47;86.50
35121;BME280;21297;52.008;4.576;2024-01-30T09:27:18;45227.16;;;-143.47;86.50
35121;BME280;21297;52.008;4.576;2024-01-30T09:30:04;45193.78;;;-143.47;86.13
35121;BME280;21297;52.008;4.576;2024-01-30T09:32:50;45258.59;;;-143.47;86.78
35121;BME280;21297;52.008;4.576;2024-01-30T09:35:36;45219.31;;;-143.47;86.19
35121;BME280;21297;52.008;4.576;2024-01-30T09:38:22;45195.72;;;-143.47;86.02
35121;BME280;21297;52.008;4.576;2024-01-30T09:41:09;45203.59;;;-143.47;86.37
35121;BME280;21297;52.008;4.576;2024-01-30T09:43:57;45229.13;;;-143.47;86.78
35121;BME280;21297;52.008;4.576;2024-01-30T09:46:43;45297.91;;;-143.47;87.14
35121;BME280;21297;52.008;4.576;2024-01-30T09:49:32;45252.72;;;-143.47;86.50
35121;BME280;21297;52.008;4.576;2024-01-30T09:52:18;45376.47;;;-143.47;89.42
35121;BME280;21297;52.008;4.576;2024-01-30T09:55:05;45303.78;;;-143.47;88.04
35121;BME280;21297;52.008;4.576;2024-01-30T09:57:51;45337.19;;;-143.47;87.93
35121;BME280;21297;52.008;4.576;2024-01-30T10:00:36;45183.94;;;-143.47;85.66
35121;BME280;21297;52.008;4.576;2024-01-30T10:03:22;45199.66;;;-143.47;85.81
35121;BME280;21297;52.008;4.576;2024-01-30T10:06:08;45237.00;;;-143.47;87.04
35121;BME280;21297;52.008;4.576;2024-01-30T10:08:54;45286.09;;;-143.47;87.61
35121;BME280;21297;52.008;4.576;2024-01-30T10:11:39;45376.47;;;-143.47;89.01
35121;BME280;21297;52.008;4.576;2024-01-30T10:14:25;45352.91;;;-143.47;88.99
35121;BME280;21297;52.008;4.576;2024-01-30T10:17:12;45313.63;;;-143.47;88.56
35121;BME280;21297;52.008;4.576;2024-01-30T10:19:57;45266.47;;;-143.47;88.05
35121;BME280;21297;52.008;4.576;2024-01-30T10:22:44;45246.81;;;-143.47;87.06
35121;BME280;21297;52.008;4.576;2024-01-30T10:25:31;45152.50;;;-143.47;85.19
35121;BME280;21297;52.008;4.576;2024-01-30T10:28:17;45148.59;;;-143.47;84.87
35121;BME280;21297;52.008;4.576;2024-01-30T10:31:03;45030.72;;;-143.47;81.83
35121;BME280;21297;52.008;4.576;2024-01-30T10:33:51;44977.69;;;-143.47;79.57
35121;BME280;21297;52.008;4.576;2024-01-30T10:36:40;44989.47;;;-143.47;79.08
35121;BME280;21297;52.008;4.576;2024-01-30T10:39:29;44956.06;;;-143.47;79.45
35121;BME280;21297;52.008;4.576;2024-01-30T10:42:18;44967.84;;;-143.47;79.53
35121;BME280;21297;52.008;4.576;2024-01-30T10:45:13;44977.69;;;-143.47;79.82
35121;BME280;21297;52.008;4.576;2024-01-30T10:48:01;45003.22;;;-143.47;80.58
35121;BME280;21297;52.008;4.576;2024-01-30T10:50:50;45030.72;;;-143.47;81.90
35121;BME280;21297;52.008;4.576;2024-01-30T10:53:36;45066.06;;;-143.47;82.72
35121;BME280;21297;52.008;4.576;2024-01-30T10:56:23;45085.72;;;-143.47;83.17
35121;BME280;21297;52.008;4.576;2024-01-30T10:59:09;45058.22;;;-143.47;83.43
35121;BME280;21297;52.008;4.576;2024-01-30T11:01:56;45132.88;;;-143.47;84.57
35121;BME280;21297;52.008;4.576;2024-01-30T11:04:42;45197.69;;;-143.47;87.10
35121;BME280;21297;52.008;4.576;2024-01-30T11:07:29;45309.69;;;-143.47;88.46
35121;BME280;21297;52.008;4.576;2024-01-30T11:10:15;45439.34;;;-143.47;90.85
35121;BME280;21297;52.008;4.576;2024-01-30T11:13:10;45494.34;;;-143.47;91.17
35121;BME280;21297;52.008;4.576;2024-01-30T11:16:00;45341.13;;;-143.47;89.31
35121;BME280;21297;52.008;4.576;2024-01-30T11:18:50;45221.28;;;-143.47;86.55
35121;BME280;21297;52.008;4.576;2024-01-30T11:21:41;45154.47;;;-143.47;85.07
35121;BME280;21297;52.008;4.576;2024-01-30T11:24:27;45070.00;;;-143.47;84.35
35121;BME280;21297;52.008;4.576;2024-01-30T11:27:14;45024.81;;;-143.47;82.63
35121;BME280;21297;52.008;4.576;2024-01-30T11:30:03;45034.66;;;-143.47;82.23
35121;BME280;21297;52.008;4.576;2024-01-30T11:33:02;45054.28;;;-143.47;82.65
35121;BME280;21297;52.008;4.576;2024-01-30T11:35:51;45077.88;;;-143.47;84.01
35121;BME280;21297;52.008;4.576;2024-01-30T11:38:37;45097.50;;;-143.47;84.81
35121;BME280;21297;52.008;4.576;2024-01-30T11:41:23;45105.38;;;-143.47;84.84
35121;BME280;21297;52.008;4.576;2024-01-30T11:44:09;45113.22;;;-143.47;84.99
35121;BME280;21297;52.008;4.576;2024-01-30T11:46:55;45128.94;;;-143.47;84.79
35121;BME280;21297;52.008;4.576;2024-01-30T11:49:41;45123.03;;;-143.47;84.93
35121;BME280;21297;52.008;4.576;2024-01-30T11:52:28;45111.25;;;-143.47;84.56
35121;BME280;21297;52.008;4.576;2024-01-30T11:55:14;45125.00;;;-143.47;84.91
35121;BME280;21297;52.008;4.576;2024-01-30T11:58:00;45089.66;;;-143.47;84.30
35121;BME280;21297;52.008;4.576;2024-01-30T12:00:55;45132.88;;;-143.47;85.03
35121;BME280;21297;52.008;4.576;2024-01-30T12:03:41;45119.13;;;-143.47;85.05
35121;BME280;21297;52.008;4.576;2024-01-30T12:06:27;45109.28;;;-143.47;84.98
35121;BME280;21297;52.008;4.576;2024-01-30T12:09:13;45160.38;;;-143.47;85.57
35121;BME280;21297;52.008;4.576;2024-01-30T12:11:58;45178.06;;;-143.47;86.21
35121;BME280;21297;52.008;4.576;2024-01-30T12:14:45;45282.19;;;-143.47;88.15
35121;BME280;21297;52.008;4.576;2024-01-30T12:17:32;45427.56;;;-143.47;90.63
35121;BME280;21297;52.008;4.576;2024-01-30T12:20:18;45455.06;;;-143.47;91.50
35121;BME280;21297;52.008;4.576;2024-01-30T12:23:04;45498.28;;;-143.47;91.83
35121;BME280;21297;52.008;4.576;2024-01-30T12:25:50;45514.00;;;-143.47;91.98
35121;BME280;21297;52.008;4.576;2024-01-30T12:28:36;45482.56;;;-143.47;92.08
35121;BME280;21297;52.008;4.576;2024-01-30T12:31:28;45500.25;;;-143.47;91.90
35121;BME280;21297;52.008;4.576;2024-01-30T12:34:14;45686.91;;;-143.47;93.67
35121;BME280;21297;52.008;4.576;2024-01-30T12:37:02;45922.69;;;-143.47;96.15
35121;BME280;21297;52.008;4.576;2024-01-30T12:39:48;46072.03;;;-143.47;97.29
35121;BME280;21297;52.008;4.576;2024-01-30T12:42:34;46396.25;;;-143.47;99.33
35121;BME280;21297;52.008;4.576;2024-01-30T12:45:20;46706.78;;;-143.47;100.00
35121;BME280;21297;52.008;4.576;2024-01-30T12:48:08;47084.13;;;-143.47;100.00
35121;BME280;21297;52.008;4.576;2024-01-30T12:50:54;47691.50;;;-143.47;100.00
35121;BME280;21297;52.008;4.576;2024-01-30T12:53:40;48379.59;;;-143.47;100.00
35121;BME280;21297;52.008;4.576;2024-01-30T12:56:25;48802.34;;;-143.47;100.00
35121;BME280;21297;52.008;4.576;2024-01-30T12:59:11;49537.81;;;-143.47;100.00
35121;BME280;21297;52.008;4.576;2024-01-30T13:01:59;50883.28;;;-143.47;100.00
35121;BME280;21297;52.008;4.576;2024-01-30T13:04:45;50552.78;;;-143.47;100.00
35121;BME280;21297;52.008;4.576;2024-01-30T13:07:31;50275.41;;;-143.47;100.00
35121;BME280;21297;52.008;4.576;2024-01-30T13:10:17;50365.91;;;-143.47;100.00
35121;BME280;21297;52.008;4.576;2024-01-30T13:13:03;50897.06;;;-143.47;100.00
35121;BME280;21297;52.008;4.576;2024-01-30T13:15:48;51546.34;;;-143.47;100.00
35121;BME280;21297;52.008;4.576;2024-01-30T13:18:34;53134.63;;;-143.47;100.00
35121;BME280;21297;52.008;4.576;2024-01-30T13:21:20;54879.09;;;-143.47;100.00
35121;BME280;21297;52.008;4.576;2024-01-30T13:24:06;56839.13;;;-143.47;100.00
35121;BME280;21297;52.008;4.576;2024-01-30T13:26:51;55562.53;;;-143.47;100.00
35121;BME280;21297;52.008;4.576;2024-01-30T13:29:37;56789.88;;;-143.47;100.00
35121;BME280;21297;52.008;4.576;2024-01-30T13:32:23;59580.81;;;-143.47;100.00
35121;BME280;21297;52.008;4.576;2024-01-30T13:35:08;62723.00;;;-143.47;100.00
35121;BME280;21297;52.008;4.576;2024-01-30T13:37:55;66379.19;;;-143.47;100.00
35121;BME280;21297;52.008;4.576;2024-01-30T13:40:40;68908.09;;;-143.47;100.00
35121;BME280;21297;52.008;4.576;2024-01-30T13:43:26;70426.19;;;-143.47;100.00
35121;BME280;21297;52.008;4.576;2024-01-30T13:46:12;73210.91;;;-143.47;100.00
35121;BME280;21297;52.008;4.576;2024-01-30T13:48:58;71944.88;;;-143.47;100.00
35121;BME280;21297;52.008;4.576;2024-01-30T13:51:43;72704.44;;;-143.47;100.00
35121;BME280;21297;52.008;4.576;2024-01-30T13:54:29;71944.88;;;-143.47;100.00
35121;BME280;21297;52.008;4.576;2024-01-30T13:57:16;72704.44;;;-143.47;100.00
35121;BME280;21297;52.008;4.576;2024-01-30T14:00:05;74730.66;;;-143.47;100.00
35121;BME280;21297;52.008;4.576;2024-01-30T14:02:51;74984.00;;;-143.47;100.00
35121;BME280;21297;52.008;4.576;2024-01-30T14:05:40;76504.41;;;-143.47;100.00
35121;BME280;21297;52.008;4.576;2024-01-30T14:08:25;77518.34;;;-143.47;100.00
35121;BME280;21297;52.008;4.576;2024-01-30T14:11:13;79039.75;;;-143.47;100.00
35121;BME280;21297;52.008;4.576;2024-01-30T14:13:59;79547.00;;;-143.47;100.00